Cleveland, OH

10:06 PM EDT on April 21, 2015 (GMT -0400)
Cleveland-Hopkins International | | Change Station
CLOSE
Current Station
Airport
Location: Cleveland,
Elevation: 804 ft
Nearby Weather Stations
Active Advisory: Special Statement

Elev 804 ft 41.40 °N, 81.85 °W | Updated 15 minutes ago

Overcast
Overcast
52 °F
Feels Like 52 °F
N
15
Wind Variable Wind from WSW

Today
High -- | Low -- °F
--% Chance of Precip.
Yesterday
High -- | Low -- °F
Precip. -- in
6:38 AM 8:13 PM
Waxing Crescent, 14% visible
Pressure 29.70 in
Visibility 10.0 miles
Clouds Scattered Clouds 7500 ft
Mostly Cloudy 9000 ft
Overcast 11000 ft
Dew Point 26 °F
Humidity 37%
Rainfall 0.00 in
Snow Depth Not available.
UV 0 out of 12
Pollen 11.50 out of 12
Air Quality Not available.
Flu Activity Regional
METAR KCLE 220151Z 25013KT 10SM SCT075 BKN090 OVC110 11/M03 A2969 RMK AO2 SLP055 T01111033

More Conditions Fewer Conditions

Pressure 29.70 in
Visibility 10.0 miles
Clouds Scattered Clouds 7500 ft
Mostly Cloudy 9000 ft
Overcast 11000 ft
Dew Point 26 °F
Humidity 37%
Rainfall 0.00 in
Snow Depth Not available.
UV 0 out of 12
Pollen 11.50 out of 12
Air Quality Not available.
Flu Activity Regional
METAR KCLE 220151Z 25013KT 10SM SCT075 BKN090 OVC110 11/M03 A2969 RMK AO2 SLP055 T01111033

More Conditions Fewer Conditions

10-Day Weather Forecast

Almanac

Astronomy

Apr. 21, 2015 Rise Set
Actual Time
Civil Twilight
Nautical Twilight
Astronomical Twilight
Moon
Length of Visible Light
Length of Day
Tomorrow will be .
, % of the Moon is Illuminated

Today's Extremes

State Highs State Lows

Community

WunderPhotos

Upload Photos

1,815,628 photos uploaded!

WunderBlogs® & News

Nearby

Air Quality

  Air Quality AQ Index Pollutant
Not available.

Snow Depth

Station Depth Elevation

Earthquake Activity

City Distance Mag. Time & Date
Minimum magnitude displayed is 2.5.

Coastal Water Temperatures

Place Temperature

Stations

Nearby Weather Stations

Station Location Temp. Windchill Dew Point Humidity Wind Precip. Elev Updated Type
                   
Special Statement
Statement as of 9:11 PM EDT on April 21, 2015

... Wind gusts of 40 to 50 mph still possible...

Scattered showers will occur across the area late this evening.
Some of these showers may be accompanied by wind gusts up to 50
mph. In general though... wind gusts will be between 30 and 40 mph
through the remainder of the evening.


911 PM EDT Tue Apr 21 2015

... Wind gusts of 40 to 50 mph still possible...

Scattered showers will occur across the area late this evening.
Some of these showers may be accompanied by wind gusts up to 50
mph. In general though... wind gusts will be between 30 and 40 mph
through the remainder of the evening.


Oudeman